Time;durP1;ratioP1;P1;durP2;ratioP2;P2;SDS_P1;SDS_P2;PMS_P1;PMS_P2;Temp;Humidity;BMP_temperature;BMP_pressure;BME280_temperature;BME280_humidity;BME280_pressure;Samples;Min_cycle;Max_cycle;Signal;HPM_P1;HPM_P2
2022/06/04 00:01:35;;;;;;;4.10;1.98;;;;;;;15.93;52.23;101769.59;4901063;29;20138;-86
2022/06/04 00:04:00;;;;;;;3.88;2.10;;;;;;;15.93;52.02;101768.75;4917164;29;20040;-85
2022/06/04 00:06:26;;;;;;;14.70;2.38;;;;;;;15.88;52.15;101758.19;4918883;29;20056;-86
2022/06/04 00:08:51;;;;;;;5.00;2.00;;;;;;;15.87;52.04;101756.41;4868753;29;20139;-85
2022/06/04 00:16:45;;;;;;;8.05;2.25;;;;;;;15.74;52.25;101753.22;4916823;29;20119;-85
2022/06/04 00:19:12;;;;;;;3.33;2.08;;;;;;;15.68;52.26;101738.22;4896985;29;20136;-86
2022/06/04 00:21:38;;;;;;;5.70;2.08;;;;;;;15.60;52.58;101737.59;4895802;29;20147;-86
2022/06/04 00:24:05;;;;;;;5.00;2.00;;;;;;;15.55;52.49;101735.94;4917037;29;20051;-86
2022/06/04 00:26:31;;;;;;;3.08;1.88;;;;;;;15.53;52.60;101741.34;4900054;29;20051;-86
2022/06/04 00:28:56;;;;;;;2.65;1.80;;;;;;;15.48;52.46;101743.28;4913260;29;20096;-86
2022/06/04 00:31:22;;;;;;;6.45;1.98;;;;;;;15.44;52.76;101752.28;4916563;29;20198;-86
2022/06/04 00:33:48;;;;;;;6.75;2.40;;;;;;;15.40;52.40;101751.47;4899657;29;20044;-85
2022/06/04 00:36:13;;;;;;;5.13;2.10;;;;;;;15.37;52.43;101746.22;4899830;29;20674;-85
2022/06/04 00:38:39;;;;;;;10.95;2.15;;;;;;;15.34;52.74;101751.66;4916650;29;20131;-86
2022/06/04 00:41:41;;;;;;;4.45;2.03;;;;;;;15.34;52.21;101748.97;4916394;29;20086;-85
2022/06/04 00:44:10;;;;;;;6.15;2.20;;;;;;;15.30;52.38;101759.78;4898285;29;20415;-85
2022/06/04 00:46:41;;;;;;;5.40;2.15;;;;;;;15.26;52.71;101751.00;4915869;29;20044;-85
2022/06/04 00:49:08;;;;;;;4.10;1.95;;;;;;;15.24;52.93;101752.81;4915891;29;20060;-85
2022/06/04 00:51:34;;;;;;;4.00;2.20;;;;;;;15.20;52.81;101745.81;4916340;29;20441;-86
2022/06/04 00:54:00;;;;;;;4.43;1.90;;;;;;;15.19;52.88;101744.06;4916212;29;20080;-85
2022/06/04 00:56:44;;;;;;;4.30;2.10;;;;;;;15.21;52.32;101747.56;4916322;29;20532;-84
2022/06/04 00:59:38;;;;;;;5.57;2.00;;;;;;;15.15;52.60;101745.06;4916321;29;20413;-87
2022/06/04 01:02:15;;;;;;;3.53;1.92;;;;;;;15.11;52.79;101770.94;4916293;29;20067;-85
2022/06/04 01:05:18;;;;;;;5.18;1.85;;;;;;;15.13;52.13;101781.56;4916167;29;20074;-85
2022/06/04 01:08:10;;;;;;;7.13;2.25;;;;;;;15.10;52.60;101784.31;4916378;29;20044;-85
2022/06/04 01:10:45;;;;;;;5.30;2.08;;;;;;;15.05;52.72;101790.63;4915999;29;20174;-86
2022/06/04 01:13:52;;;;;;;5.90;2.20;;;;;;;15.10;52.49;101800.31;4916259;29;20059;-86
2022/06/04 01:16:31;;;;;;;3.75;2.05;;;;;;;15.07;52.49;101817.28;4915852;29;20040;-85
2022/06/04 01:19:31;;;;;;;6.80;2.33;;;;;;;15.04;52.74;101826.25;4898851;29;20492;-85
2022/06/04 01:22:15;;;;;;;4.38;2.45;;;;;;;15.00;52.77;101831.69;4915965;29;20081;-86
2022/06/04 01:24:57;;;;;;;4.72;1.83;;;;;;;14.99;52.84;101819.28;4916382;29;20044;-86
2022/06/04 01:27:36;;;;;;;3.97;2.10;;;;;;;14.96;52.69;101817.56;4904174;29;20043;-86
2022/06/04 01:30:17;;;;;;;2.65;1.90;;;;;;;14.90;53.44;101803.47;4916226;29;20440;-85
2022/06/04 01:33:02;;;;;;;6.32;2.20;;;;;;;14.87;53.53;101809.78;4908094;29;20555;-85
2022/06/04 01:35:55;;;;;;;5.07;2.10;;;;;;;14.86;53.35;101812.47;4914594;29;20056;-86
2022/06/04 01:38:35;;;;;;;7.75;2.25;;;;;;;14.79;53.37;101803.75;4915561;29;20134;-86
2022/06/04 01:41:09;;;;;;;4.20;2.33;;;;;;;14.74;53.75;101817.19;4915238;29;20394;-87
2022/06/04 01:43:48;;;;;;;7.20;2.25;;;;;;;14.72;54.23;101813.69;4915553;29;20412;-87
2022/06/04 01:46:16;;;;;;;3.80;2.20;;;;;;;14.72;53.99;101819.00;4913531;29;20079;-86
2022/06/04 01:48:44;;;;;;;3.90;2.40;;;;;;;14.69;53.93;101813.75;4898463;29;20071;-86
2022/06/04 01:51:12;;;;;;;6.93;1.98;;;;;;;14.68;54.64;101820.00;4898290;29;20593;-86
2022/06/04 01:53:41;;;;;;;5.03;2.10;;;;;;;14.65;54.44;101832.53;4915523;29;20513;-86
2022/06/04 01:56:16;;;;;;;3.78;2.25;;;;;;;14.64;53.95;101837.00;4928941;29;20063;-86
2022/06/04 01:58:50;;;;;;;6.22;2.08;;;;;;;14.63;54.24;101844.09;4915234;29;20112;-86
2022/06/04 02:01:20;;;;;;;4.13;2.50;;;;;;;14.60;54.51;101841.50;4917521;29;20397;-86
2022/06/04 02:04:06;;;;;;;4.45;2.22;;;;;;;14.62;53.96;101844.13;4915466;29;20399;-86
2022/06/04 02:06:46;;;;;;;5.50;2.25;;;;;;;14.57;53.89;101854.03;4914996;29;20039;-85
2022/06/04 02:09:15;;;;;;;8.52;2.95;;;;;;;14.48;54.36;101844.41;4897306;29;20131;-86
2022/06/04 02:11:48;;;;;;;4.53;2.33;;;;;;;14.48;54.20;101848.84;4916306;29;20489;-86
2022/06/04 02:14:14;;;;;;;4.55;2.38;;;;;;;14.47;54.13;101845.31;4915213;29;20401;-86
2022/06/04 02:16:53;;;;;;;4.22;2.25;;;;;;;14.45;54.06;101833.81;4914815;29;20040;-86
2022/06/04 02:19:19;;;;;;;4.75;2.10;;;;;;;14.45;54.22;101832.94;4908078;29;20493;-86
2022/06/04 02:21:45;;;;;;;6.47;2.00;;;;;;;14.40;54.55;101830.38;4915003;29;20169;-86
2022/06/04 02:24:11;;;;;;;10.13;2.55;;;;;;;14.39;54.09;101837.50;4914827;29;20130;-86
2022/06/04 02:26:37;;;;;;;10.02;2.08;;;;;;;14.39;54.32;101836.59;4914672;29;20083;-86
2022/06/04 02:29:04;;;;;;;4.72;2.13;;;;;;;14.40;53.92;101838.38;4898016;29;20135;-85
2022/06/04 02:31:45;;;;;;;3.40;2.08;;;;;;;14.42;54.07;101839.22;4914616;29;20069;-86
2022/06/04 02:34:34;;;;;;;10.85;2.10;;;;;;;14.41;54.44;101841.00;4893794;29;20052;-86
2022/06/04 02:37:08;;;;;;;6.35;2.70;;;;;;;14.35;54.56;101838.47;4894365;29;20127;-86
2022/06/04 02:39:49;;;;;;;6.00;2.20;;;;;;;14.33;54.68;101834.94;4892114;29;20074;-79
2022/06/04 02:42:37;;;;;;;;;;;;;;;14.39;53.21;101826.84;4888445;29;20044;-78
2022/06/04 02:45:05;;;;;;;6.38;2.38;;;;;;;14.27;54.32;101829.78;4889337;29;19919;-79
2022/06/04 02:47:40;;;;;;;5.10;2.25;;;;;;;14.24;54.59;101824.47;4878665;29;20043;-79
2022/06/04 02:50:34;;;;;;;6.13;2.30;;;;;;;14.24;54.69;101820.94;4895254;29;20402;-78
2022/06/04 02:53:03;;;;;;;5.65;2.30;;;;;;;14.22;54.82;101813.00;4895202;29;20076;-79
2022/06/04 02:55:37;;;;;;;5.65;2.28;;;;;;;14.23;54.79;101803.22;4878435;29;20136;-78
2022/06/04 02:58:10;;;;;;;4.95;2.40;;;;;;;14.21;54.89;101795.25;4895089;29;20048;-79
2022/06/04 03:00:36;;;;;;;4.97;2.47;;;;;;;14.15;55.00;101803.41;4895233;29;20127;-79
2022/06/04 03:03:01;;;;;;;5.13;2.72;;;;;;;14.09;55.54;101783.06;4903760;29;20124;-79
2022/06/04 03:05:28;;;;;;;3.75;2.75;;;;;;;14.06;55.36;101782.28;4895472;29;20048;-78
2022/06/04 03:07:59;;;;;;;5.80;2.20;;;;;;;14.04;55.91;101784.09;4895258;29;20092;-79
2022/06/04 03:10:31;;;;;;;4.32;2.20;;;;;;;14.03;56.21;101779.69;4888821;29;20037;-77
2022/06/04 03:12:56;;;;;;;5.03;2.50;;;;;;;14.01;56.22;101784.16;4895025;29;20147;-77
2022/06/04 03:15:22;;;;;;;5.57;2.40;;;;;;;14.01;56.06;101781.50;4895002;29;20045;-77
2022/06/04 03:17:49;;;;;;;5.57;2.65;;;;;;;13.97;56.38;101786.88;4878127;29;20410;-78
2022/06/04 03:20:19;;;;;;;5.38;2.55;;;;;;;13.96;56.01;101773.59;4878355;29;20045;-77
2022/06/04 03:22:45;;;;;;;8.90;2.90;;;;;;;13.96;56.72;101769.13;4895334;29;20069;-77
2022/06/04 03:25:11;;;;;;;9.82;2.75;;;;;;;13.91;56.80;101779.00;4894945;29;20454;-79
2022/06/04 03:27:37;;;;;;;5.47;2.63;;;;;;;13.87;57.20;101773.78;4895011;29;20029;-78
2022/06/04 03:30:04;;;;;;;7.70;3.10;;;;;;;13.85;57.04;101773.84;4895020;29;20044;-79
2022/06/04 03:32:29;;;;;;;10.02;3.40;;;;;;;13.81;57.59;101769.47;4894893;29;20052;-78
2022/06/04 03:34:55;;;;;;;4.38;2.83;;;;;;;13.76;58.05;101766.03;4904310;29;20048;-78
2022/06/04 03:37:20;;;;;;;7.47;3.13;;;;;;;13.71;58.17;101762.59;4913917;29;20183;-78
2022/06/04 03:39:46;;;;;;;5.25;2.72;;;;;;;13.71;58.43;101759.91;4896849;29;20063;-78
2022/06/04 03:42:11;;;;;;;7.38;2.92;;;;;;;13.70;58.06;101760.84;4896469;29;20119;-78
2022/06/04 03:44:37;;;;;;;6.88;2.95;;;;;;;13.68;58.54;101770.63;4895824;29;20515;-78
2022/06/04 03:47:02;;;;;;;8.77;3.17;;;;;;;13.67;58.70;101775.06;4880904;29;20036;-79
2022/06/04 03:49:28;;;;;;;7.82;3.13;;;;;;;13.68;58.96;101791.94;4897027;29;20466;-78
2022/06/04 03:51:54;;;;;;;5.68;3.15;;;;;;;13.64;59.12;101788.44;4908606;29;20068;-78
2022/06/04 03:54:52;;;;;;;6.07;2.97;;;;;;;13.65;59.20;101792.88;4932592;29;20118;-78
2022/06/04 03:59:52;;;;;;;7.40;2.97;;;;;;;13.65;58.81;101797.28;4902125;29;20472;-77
2022/06/04 04:02:18;;;;;;;6.35;2.90;;;;;;;13.63;59.41;101802.66;4913860;29;20096;-78
2022/06/04 04:04:44;;;;;;;5.03;2.97;;;;;;;13.63;59.76;101804.44;4913696;29;20076;-78
2022/06/04 04:07:09;;;;;;;11.52;3.08;;;;;;;13.64;59.46;101803.53;4913846;29;20059;-78
2022/06/04 04:09:35;;;;;;;7.32;3.22;;;;;;;13.63;59.55;101815.09;4913920;29;20497;-78
2022/06/04 04:12:01;;;;;;;7.88;3.42;;;;;;;13.65;59.47;101815.91;4904568;29;20520;-78
2022/06/04 04:14:26;;;;;;;7.82;3.35;;;;;;;13.66;58.19;101813.25;4914064;29;20080;-77
2022/06/04 04:16:51;;;;;;;5.60;3.05;;;;;;;13.66;60.19;101820.34;4896497;29;20072;-78
2022/06/04 04:19:17;;;;;;;8.43;3.33;;;;;;;13.67;60.18;101816.78;4926923;29;20519;-77
2022/06/04 04:21:43;;;;;;;13.05;3.95;;;;;;;13.67;59.82;101814.13;4923161;29;20056;-78
2022/06/04 04:24:08;;;;;;;6.20;3.40;;;;;;;13.69;59.94;101809.63;4913645;29;20048;-78
2022/06/04 04:26:34;;;;;;;7.07;3.40;;;;;;;13.70;60.74;101817.63;4916549;29;20123;-78
2022/06/04 04:28:59;;;;;;;7.57;3.30;;;;;;;13.71;60.65;101824.69;4916901;29;20233;-78
2022/06/04 04:31:26;;;;;;;11.48;3.97;;;;;;;13.73;60.99;101822.00;4899694;29;20068;-79
2022/06/04 04:33:52;;;;;;;11.68;3.80;;;;;;;13.72;61.15;101820.22;4899912;29;20111;-78
2022/06/04 04:36:17;;;;;;;9.77;3.80;;;;;;;13.74;61.15;101818.41;4916736;29;20467;-78
2022/06/04 04:38:43;;;;;;;5.57;3.63;;;;;;;13.73;61.14;101822.00;4916466;29;20108;-77
2022/06/04 04:41:13;;;;;;;5.90;3.42;;;;;;;13.73;61.54;101819.34;4899553;29;20040;-79
2022/06/04 04:43:40;;;;;;;10.38;3.72;;;;;;;13.74;61.45;101829.06;4916739;29;20044;-78
2022/06/04 04:46:08;;;;;;;8.07;4.13;;;;;;;13.74;61.71;101835.25;4914509;29;20111;-78
2022/06/04 04:48:34;;;;;;;8.00;3.78;;;;;;;13.76;61.22;101836.09;4916256;29;20044;-78
2022/06/04 04:50:59;;;;;;;6.60;3.47;;;;;;;13.80;61.50;101834.28;4916446;29;20492;-78
2022/06/04 04:53:25;;;;;;;11.48;3.80;;;;;;;13.85;61.48;101844.84;4916240;29;20052;-78
2022/06/04 04:55:50;;;;;;;7.03;3.25;;;;;;;13.89;61.94;101842.06;4916185;29;20044;-77
2022/06/04 04:58:16;;;;;;;10.75;4.45;;;;;;;13.91;61.01;101840.25;4899304;29;20048;-78
2022/06/04 05:00:42;;;;;;;6.03;3.47;;;;;;;13.96;61.29;101853.50;4916156;29;20040;-78
2022/06/04 05:03:08;;;;;;;11.35;3.83;;;;;;;13.97;61.63;101852.56;4916120;29;20393;-78
2022/06/04 05:05:33;;;;;;;7.55;3.80;;;;;;;13.99;61.50;101850.75;4915999;29;20040;-78
2022/06/04 05:07:59;;;;;;;7.10;4.18;;;;;;;13.98;61.64;101852.56;4916070;29;20116;-78
2022/06/04 05:10:25;;;;;;;8.20;3.45;;;;;;;14.02;61.64;101845.41;4912736;29;20406;-78
2022/06/04 05:12:52;;;;;;;6.90;3.75;;;;;;;14.05;61.81;101845.31;4898867;29;20056;-78
2022/06/04 05:15:19;;;;;;;8.23;3.92;;;;;;;14.07;62.18;101848.84;4915947;29;20079;-79
2022/06/04 05:17:44;;;;;;;6.68;3.78;;;;;;;14.06;62.22;101849.72;4919132;29;20046;-78
2022/06/04 05:20:10;;;;;;;6.65;3.75;;;;;;;14.05;62.09;101847.13;4893149;29;20052;-79
2022/06/04 05:22:35;;;;;;;10.48;4.25;;;;;;;14.07;61.95;101851.50;4915616;29;20032;-78
2022/06/04 05:25:01;;;;;;;11.50;4.28;;;;;;;14.03;62.02;101844.47;4915750;29;20115;-79
2022/06/04 05:27:27;;;;;;;9.30;4.63;;;;;;;14.00;62.39;101841.00;4915834;29;20062;-78
2022/06/04 05:29:53;;;;;;;11.95;5.32;;;;;;;14.01;62.79;101854.28;4911850;29;20471;-79
2022/06/04 05:32:18;;;;;;;12.52;4.22;;;;;;;14.00;62.78;101847.19;4898674;29;20179;-79
2022/06/04 05:34:44;;;;;;;9.35;4.85;;;;;;;14.04;62.56;101848.00;4915123;29;20185;-78
2022/06/04 05:37:09;;;;;;;8.70;4.22;;;;;;;14.08;62.69;101847.91;4898586;29;20095;-79
2022/06/04 05:39:35;;;;;;;8.10;4.13;;;;;;;14.08;63.07;101847.91;4915419;29;20473;-78
2022/06/04 05:42:02;;;;;;;8.25;4.32;;;;;;;14.13;63.25;101854.03;4915431;29;20088;-80
2022/06/04 05:44:28;;;;;;;10.43;5.07;;;;;;;14.11;62.79;101858.50;4914429;29;20079;-80
2022/06/04 05:46:54;;;;;;;18.67;5.40;;;;;;;14.10;63.23;101869.22;4915380;29;20471;-78
2022/06/04 05:49:20;;;;;;;8.48;4.28;;;;;;;14.09;63.20;101878.09;4915558;29;20088;-78
2022/06/04 05:51:46;;;;;;;12.02;5.22;;;;;;;14.10;63.29;101874.53;4915291;29;20051;-79
2022/06/04 05:54:12;;;;;;;11.30;4.80;;;;;;;14.05;63.41;101881.75;4898314;29;20103;-78
2022/06/04 05:56:41;;;;;;;11.60;4.80;;;;;;;14.03;64.10;101891.53;4915199;29;20147;-79
2022/06/04 05:59:09;;;;;;;9.90;5.22;;;;;;;14.05;63.15;101895.06;4915890;29;20072;-78
2022/06/04 06:01:35;;;;;;;10.55;5.30;;;;;;;14.08;63.16;101903.84;4915264;29;20052;-79
2022/06/04 06:04:01;;;;;;;7.63;4.63;;;;;;;14.07;63.63;101888.78;4915546;29;20048;-79
2022/06/04 06:06:29;;;;;;;9.20;4.78;;;;;;;14.14;63.63;101885.09;4898033;29;20366;-78
2022/06/04 06:08:56;;;;;;;12.57;5.45;;;;;;;14.19;63.64;101888.53;4882525;29;20408;-77
2022/06/04 06:11:22;;;;;;;10.20;5.40;;;;;;;14.24;63.82;101883.09;4911285;29;20147;-78
2022/06/04 06:13:49;;;;;;;9.18;4.63;;;;;;;14.29;62.93;101885.66;4915018;29;20052;-80
2022/06/04 06:16:18;;;;;;;8.98;4.78;;;;;;;14.29;62.56;101889.25;4915131;29;20040;-78
2022/06/04 06:18:44;;;;;;;7.55;5.05;;;;;;;14.30;63.32;101904.31;4914801;29;20055;-77
2022/06/04 06:21:13;;;;;;;12.32;4.68;;;;;;;14.31;63.16;101898.06;4901192;29;20052;-78
2022/06/04 06:23:39;;;;;;;11.55;4.90;;;;;;;14.36;63.12;101898.84;4924234;29;20204;-79
2022/06/04 06:26:11;;;;;;;12.05;5.30;;;;;;;14.39;62.14;101890.81;4914872;29;20492;-78
2022/06/04 06:28:39;;;;;;;11.80;5.00;;;;;;;14.39;63.02;101893.47;4914849;29;20369;-78
2022/06/04 06:31:05;;;;;;;13.85;5.55;;;;;;;14.45;62.66;101897.78;4914654;29;20052;-78
2022/06/04 06:33:31;;;;;;;13.75;5.15;;;;;;;14.48;62.81;101900.38;4903343;29;20376;-79
2022/06/04 06:35:58;;;;;;;11.32;5.28;;;;;;;14.51;62.87;101902.09;4919351;29;20066;-79
2022/06/04 06:38:24;;;;;;;10.32;5.45;;;;;;;14.56;62.95;101906.47;4910576;29;20517;-78
2022/06/04 06:40:49;;;;;;;12.43;5.47;;;;;;;14.55;62.48;101898.50;4914526;29;20111;-79
2022/06/04 06:43:15;;;;;;;10.38;5.68;;;;;;;14.57;62.64;101905.53;4878706;29;20430;-78
2022/06/04 06:45:41;;;;;;;9.93;5.45;;;;;;;14.61;62.51;101909.91;4906734;29;20044;-79
2022/06/04 06:48:08;;;;;;;13.00;5.40;;;;;;;14.63;62.71;101904.53;4913795;29;20048;-79
2022/06/04 06:50:34;;;;;;;19.17;5.30;;;;;;;14.65;62.72;101905.38;4899768;29;20043;-78
2022/06/04 06:52:59;;;;;;;13.43;5.63;;;;;;;14.70;62.23;101907.94;4897495;29;20123;-79
2022/06/04 06:55:26;;;;;;;13.55;5.35;;;;;;;14.74;61.58;101905.19;4881700;29;20475;-78
2022/06/04 06:57:51;;;;;;;12.52;6.03;;;;;;;14.80;62.14;101910.38;4897491;29;20174;-78
2022/06/04 07:00:17;;;;;;;8.98;4.95;;;;;;;14.82;61.90;101913.88;4897806;29;20893;-78
2022/06/04 07:02:42;;;;;;;12.38;5.35;;;;;;;14.87;62.18;101913.78;4923913;29;20062;-78
2022/06/04 07:05:08;;;;;;;10.32;5.28;;;;;;;14.95;62.02;101916.28;4897265;29;20107;-79
2022/06/04 07:07:34;;;;;;;9.73;5.10;;;;;;;15.00;61.59;101920.56;4914325;29;20122;-79
2022/06/04 07:09:59;;;;;;;13.57;5.82;;;;;;;15.11;61.76;101909.69;4894008;29;20564;-78
2022/06/04 07:12:24;;;;;;;10.60;4.93;;;;;;;15.22;62.18;101902.28;4917774;29;20051;-79
2022/06/04 07:14:50;;;;;;;12.60;5.90;;;;;;;15.30;61.35;101899.41;4922233;29;20052;-78
2022/06/04 07:17:16;;;;;;;11.10;5.28;;;;;;;15.44;60.42;101902.63;4881698;29;20056;-78
2022/06/04 07:19:41;;;;;;;15.05;5.85;;;;;;;15.61;60.40;101906.66;4896998;29;20056;-78
2022/06/04 07:22:07;;;;;;;14.43;6.20;;;;;;;15.69;60.53;101900.22;4897216;29;20056;-78
2022/06/04 07:24:32;;;;;;;14.95;6.00;;;;;;;15.86;60.39;101897.09;4913965;29;20130;-78
2022/06/04 07:27:00;;;;;;;11.20;5.80;;;;;;;15.96;59.02;101904.88;4897147;29;20147;-78
2022/06/04 07:29:26;;;;;;;9.88;5.47;;;;;;;16.07;59.13;101902.78;4914238;29;20413;-78
2022/06/04 07:31:53;;;;;;;12.90;5.00;;;;;;;16.17;58.81;101904.28;4914259;29;20449;-78
2022/06/04 07:34:18;;;;;;;9.00;5.60;;;;;;;16.23;58.07;101906.78;4897106;29;20075;-79
2022/06/04 07:36:45;;;;;;;10.77;5.80;;;;;;;16.29;58.39;101917.28;4892187;29;20397;-80
2022/06/04 07:39:14;;;;;;;12.05;5.45;;;;;;;16.44;58.34;101912.41;4904937;29;20123;-78
2022/06/04 07:41:43;;;;;;;10.82;5.80;;;;;;;16.47;57.78;101913.22;4914020;29;20067;-78
2022/06/04 07:44:10;;;;;;;7.97;5.10;;;;;;;16.53;57.29;101920.19;4913510;29;20098;-78
2022/06/04 07:46:36;;;;;;;11.60;5.90;;;;;;;16.57;57.18;101921.84;4913828;29;20058;-78
2022/06/04 07:49:04;;;;;;;9.07;6.07;;;;;;;16.52;56.94;101918.44;4897555;29;20064;-82
2022/06/04 07:51:32;;;;;;;9.43;5.68;;;;;;;16.47;57.49;101929.25;4913880;29;20052;-77
2022/06/04 07:53:58;;;;;;;12.40;5.90;;;;;;;16.48;57.07;101919.44;4897093;29;20126;-78
2022/06/04 07:56:23;;;;;;;11.07;5.28;;;;;;;16.53;57.36;101918.38;4913931;29;20543;-78
2022/06/04 07:58:50;;;;;;;13.60;5.82;;;;;;;16.53;56.84;101915.69;4915128;29;20075;-78
2022/06/04 08:01:19;;;;;;;13.15;5.68;;;;;;;16.60;57.32;101923.56;4900496;29;20032;-79
2022/06/04 08:03:46;;;;;;;10.57;5.53;;;;;;;16.63;56.82;101921.66;4917477;29;20068;-79
2022/06/04 08:06:13;;;;;;;10.93;5.35;;;;;;;16.64;57.25;101922.53;4917653;29;20052;-78
2022/06/04 08:08:40;;;;;;;13.02;5.90;;;;;;;16.57;56.78;101932.53;4917466;29;20086;-78
2022/06/04 08:11:30;;;;;;;13.38;5.50;;;;;;;16.64;57.08;101931.44;4896985;29;20060;-78
2022/06/04 08:13:52;;;;;;;9.98;6.22;;;;;;;16.63;56.64;101928.81;4916982;29;20119;-77
2022/06/04 08:16:18;;;;;;;13.88;5.50;;;;;;;16.65;56.77;101927.84;4900396;29;20044;-78
2022/06/04 08:18:45;;;;;;;13.75;6.43;;;;;;;16.76;57.21;101930.19;4917567;29;20380;-79
2022/06/04 08:21:13;;;;;;;16.75;5.70;;;;;;;16.81;56.98;101924.72;4917053;29;20062;-78
2022/06/04 08:23:44;;;;;;;10.18;5.80;;;;;;;16.95;57.52;101909.13;4900577;29;20368;-77
2022/06/04 08:26:10;;;;;;;11.90;6.45;;;;;;;17.03;55.88;101903.53;4917365;29;20078;-78
2022/06/04 08:28:36;;;;;;;10.15;5.57;;;;;;;17.04;56.73;101908.84;4907895;29;20552;-78
2022/06/04 08:31:06;;;;;;;10.50;5.63;;;;;;;17.10;56.06;101916.66;4904627;29;20095;-78
2022/06/04 08:33:32;;;;;;;13.23;5.90;;;;;;;17.15;55.59;101912.03;4900125;29;20384;-78
2022/06/04 08:35:58;;;;;;;10.75;5.97;;;;;;;17.24;55.70;101905.53;4916743;29;20060;-78
2022/06/04 08:38:23;;;;;;;10.80;5.85;;;;;;;17.35;55.92;101907.84;4916943;29;20103;-78
2022/06/04 08:40:56;;;;;;;12.65;6.10;;;;;;;17.46;55.20;101910.16;4884536;29;20048;-78
2022/06/04 08:43:33;;;;;;;14.70;6.40;;;;;;;17.56;55.31;101912.47;4916801;29;20076;-78
2022/06/04 08:46:01;;;;;;;10.52;6.20;;;;;;;17.71;55.24;101908.41;4915089;29;20420;-79
2022/06/04 08:48:34;;;;;;;10.73;5.75;;;;;;;17.84;55.19;101900.84;4884333;29;20131;-78
2022/06/04 08:51:01;;;;;;;16.23;5.50;;;;;;;17.90;54.24;101897.91;4899829;29;20067;-78
2022/06/04 08:53:29;;;;;;;15.43;6.10;;;;;;;18.01;54.07;101908.28;4880485;29;20072;-78
2022/06/04 08:59:30;;;;;;;16.77;6.53;;;;;;;18.32;53.81;101907.13;4899342;29;20139;-77
2022/06/04 09:01:59;;;;;;;13.70;5.95;;;;;;;18.41;52.87;101928.25;4877351;29;20043;-78
2022/06/04 09:04:35;;;;;;;9.85;6.05;;;;;;;18.43;53.41;101924.59;4899540;29;20071;-78
2022/06/04 09:07:06;;;;;;;8.68;5.88;;;;;;;18.53;53.15;101937.66;4916079;29;20044;-78
2022/06/04 09:09:41;;;;;;;10.40;5.93;;;;;;;18.63;52.14;101941.75;4916458;29;20047;-78
2022/06/04 09:12:41;;;;;;;12.65;6.03;;;;;;;18.73;52.67;101937.75;4913154;29;20293;-77
2022/06/04 09:15:18;;;;;;;12.00;6.20;;;;;;;18.77;52.50;101936.75;4916396;29;20047;-78
2022/06/04 09:17:48;;;;;;;12.00;6.03;;;;;;;18.82;52.66;101928.53;4904331;29;20067;-78
2022/06/04 09:20:16;;;;;;;24.33;7.03;;;;;;;19.04;52.70;101924.06;4916291;29;20052;-78
2022/06/04 09:22:44;;;;;;;11.18;6.07;;;;;;;19.16;51.77;101921.81;4898836;29;20497;-79
2022/06/04 09:25:15;;;;;;;11.90;6.15;;;;;;;19.21;51.21;101920.66;4916476;29;20067;-78
2022/06/04 09:28:11;;;;;;;10.82;6.28;;;;;;;19.29;51.40;101929.31;4903169;29;20288;-77
2022/06/04 09:30:40;;;;;;;11.63;6.32;;;;;;;19.46;51.58;101922.34;4886698;29;20455;-78
2022/06/04 09:33:46;;;;;;;12.27;6.18;;;;;;;19.54;50.96;101918.41;4915846;29;20063;-79
2022/06/04 09:36:15;;;;;;;12.05;6.25;;;;;;;19.59;51.11;101918.22;4915725;29;20503;-79
2022/06/04 09:38:52;;;;;;;12.82;5.93;;;;;;;19.73;51.14;101915.84;4916209;29;20044;-78
2022/06/04 09:41:21;;;;;;;8.48;5.90;;;;;;;19.82;49.86;101921.75;4898598;29;20040;-78
2022/06/04 09:44:03;;;;;;;7.78;6.40;;;;;;;19.92;50.38;101913.22;4898054;29;20502;-78
2022/06/04 09:46:29;;;;;;;13.85;6.25;;;;;;;20.11;49.86;101918.66;4895831;29;20055;-77
2022/06/04 09:48:55;;;;;;;8.98;5.70;;;;;;;20.43;50.16;101921.72;4915828;29;20052;-78
2022/06/04 09:51:24;;;;;;;10.05;6.30;;;;;;;20.68;48.71;101921.47;4898407;29;20067;-77
2022/06/04 09:53:59;;;;;;;12.38;6.50;;;;;;;20.93;48.35;101929.25;4915554;29;20111;-79
2022/06/04 09:56:49;;;;;;;12.13;6.18;;;;;;;21.10;48.65;101919.50;4898397;29;20046;-78
2022/06/04 09:59:28;;;;;;;12.18;6.60;;;;;;;21.05;48.16;101928.66;4905392;29;20445;-77
2022/06/04 10:01:59;;;;;;;10.75;6.18;;;;;;;21.05;47.52;101919.72;4911521;29;20111;-77
2022/06/04 10:04:47;;;;;;;10.88;6.30;;;;;;;21.09;47.68;101928.50;4898550;29;20139;-78
2022/06/04 10:07:16;;;;;;;13.82;6.45;;;;;;;21.20;47.51;101929.72;4915263;29;20051;-78
2022/06/04 10:09:58;;;;;;;12.85;6.50;;;;;;;21.31;47.00;101931.88;4897170;29;20452;-78
2022/06/04 10:15:44;;;;;;;10.43;6.03;;;;;;;21.67;46.98;101933.72;4915060;29;20512;-77
2022/06/04 10:18:24;;;;;;;10.50;5.65;;;;;;;22.11;47.01;101930.53;4915233;29;20032;-78
2022/06/04 10:21:16;;;;;;;13.43;5.80;;;;;;;22.70;45.76;101933.63;4915042;29;20211;-78
2022/06/04 10:23:57;;;;;;;12.05;6.05;;;;;;;22.90;43.85;101932.56;4914524;29;20048;-78
2022/06/04 10:26:58;;;;;;;11.77;6.03;;;;;;;22.94;44.20;101937.66;4914988;29;20078;-78
2022/06/04 10:29:42;;;;;;;11.15;5.85;;;;;;;22.66;43.29;101938.34;4897829;29;20048;-78
2022/06/04 10:32:46;;;;;;;12.82;5.78;;;;;;;22.37;45.17;101939.06;4914983;29;20071;-77
2022/06/04 10:35:40;;;;;;;10.80;6.05;;;;;;;22.41;45.35;101929.88;4897646;29;20044;-77
2022/06/04 10:38:16;;;;;;;9.40;6.45;;;;;;;22.44;44.42;101930.56;4914624;29;20051;-77
2022/06/04 10:40:57;;;;;;;11.25;6.18;;;;;;;22.45;44.53;101931.44;4914858;29;20060;-77
2022/06/04 10:43:46;;;;;;;;;;;;;;;22.56;45.03;101936.25;4914901;29;20055;-77
2022/06/04 10:46:23;;;;;;;21.67;6.13;;;;;;;22.65;44.75;101933.03;4879738;29;19967;-77
2022/06/04 10:49:11;;;;;;;10.32;6.47;;;;;;;22.75;44.71;101928.88;4905656;29;20107;-77
2022/06/04 10:51:36;;;;;;;11.52;6.47;;;;;;;22.76;43.44;101928.78;4917863;29;20051;-77
2022/06/04 10:54:10;;;;;;;12.13;6.15;;;;;;;22.90;43.74;101937.97;4913577;29;20088;-77
2022/06/04 10:56:47;;;;;;;9.73;6.45;;;;;;;22.96;43.24;101933.06;4914228;29;20076;-78
2022/06/04 10:59:27;;;;;;;17.42;7.18;;;;;;;23.05;44.02;101934.41;4914416;29;20043;-77
2022/06/04 11:01:59;;;;;;;9.52;6.28;;;;;;;23.13;43.51;101936.66;4914418;29;20048;-77
2022/06/04 11:05:08;;;;;;;12.02;6.70;;;;;;;23.16;43.60;101945.47;4903434;29;20097;-77
2022/06/04 11:07:44;;;;;;;9.95;5.90;;;;;;;23.13;43.73;101937.53;4906461;29;20130;-77
2022/06/04 11:10:16;;;;;;;10.85;5.65;;;;;;;23.15;43.74;101932.06;4910558;29;20043;-77
2022/06/04 11:12:52;;;;;;;11.18;7.22;;;;;;;23.06;42.65;101949.66;4914462;29;20087;-77
2022/06/04 11:15:25;;;;;;;13.30;6.45;;;;;;;22.88;42.61;101940.72;4897335;29;20465;-78
2022/06/04 11:18:02;;;;;;;10.77;6.07;;;;;;;22.92;43.58;101944.13;4897080;29;20044;-79
2022/06/04 11:20:36;;;;;;;13.90;6.30;;;;;;;22.92;43.22;101933.31;4914421;29;20444;-77
2022/06/04 11:23:24;;;;;;;11.82;6.28;;;;;;;23.04;43.21;101932.66;4914317;29;20385;-78
2022/06/04 11:25:55;;;;;;;9.50;6.18;;;;;;;23.16;42.71;101936.47;4897246;29;20052;-77
2022/06/04 11:28:24;;;;;;;10.98;6.30;;;;;;;23.27;42.29;101936.75;4914329;29;20067;-77
2022/06/04 11:30:55;;;;;;;12.00;5.65;;;;;;;23.39;42.66;101932.44;4914268;29;20032;-77
2022/06/04 11:33:44;;;;;;;11.85;5.75;;;;;;;23.50;42.93;101926.41;4901282;29;20040;-77
2022/06/04 11:36:13;;;;;;;12.38;5.75;;;;;;;23.60;42.04;101933.88;4917835;29;20071;-78
2022/06/04 11:39:01;;;;;;;14.55;6.32;;;;;;;23.70;42.70;101933.34;4918034;29;20504;-77
2022/06/04 11:41:37;;;;;;;12.07;5.30;;;;;;;23.78;42.09;101934.63;4900660;29;20059;-78
2022/06/04 11:44:14;;;;;;;11.40;6.20;;;;;;;23.74;41.72;101926.84;4899034;29;20052;-78
2022/06/04 11:47:06;;;;;;;14.50;6.07;;;;;;;23.80;42.83;101919.19;4917390;29;20087;-78
2022/06/04 11:49:42;;;;;;;9.40;5.85;;;;;;;24.08;41.84;101914.78;4917851;29;20539;-77
2022/06/04 11:52:15;;;;;;;8.60;6.00;;;;;;;24.38;41.14;101917.44;4900761;29;20036;-77
2022/06/04 11:54:59;;;;;;;9.45;5.95;;;;;;;24.71;39.52;101912.72;4917659;29;20044;-78
2022/06/04 11:57:53;;;;;;;16.63;6.53;;;;;;;25.09;40.47;101912.91;4906397;29;20123;-78